GMMC/CAS METAR and TAF weather

Enter ICAO airport designator
Station Type Date Time Source
GMMC METAR 2022/01/29 10:00 UTC NOAA

GMMC 291000Z 12004KT 6000 NSC 15/06 Q1022


Station Type Date Time Source
GMMC Decoded METAR 2022/01/29 10:00 UTC NOAA

Casablanca, Morocco (GMMC) 33-34N 007-40W 62M
Jan 29, 2022 - 05:00 AM EST / 2022.01.29 1000 UTC
Wind: from the ESE (120 degrees) at 5 MPH (4 KT):0
Visibility: 3 mile(s):0
Temperature: 59 F (15 C)
Dew Point: 42 F (6 C)
Relative Humidity: 54%
Pressure (altimeter): 30.18 in. Hg (1022 hPa)
ob: GMMC 291000Z 12004KT 6000 NSC 15/06 Q1022
cycle: 10

Station Type Date Time Source
GMMC TAF 2016/05/22 17:00 UTC NOAA

FTMC31 GMMC 221700 RRA TAF LPPT 221700Z 2218/2324 34013KT CAVOK
BECMG 2221/2224 34007KT
BECMG 2310/2312 VRB03KT

Example: see airport list